createdAt,value
2022-08-22T00:00:25.228Z,20.66
2022-08-22T00:02:43.366Z,22.20
2022-08-22T00:02:45.979Z,23.06
2022-08-22T00:03:02.493Z,21.98
2022-08-22T00:03:04.818Z,22.15
2022-08-22T00:03:22.535Z,20.63
2022-08-22T00:06:09.962Z,20.52
2022-08-22T00:09:01.562Z,20.49
2022-08-22T00:11:47.454Z,20.43
2022-08-22T00:14:24.593Z,20.38
2022-08-22T00:17:04.552Z,20.34
2022-08-22T00:19:48.753Z,20.29
2022-08-22T00:22:25.384Z,20.22
2022-08-22T00:25:08.462Z,20.18
2022-08-22T00:28:00.321Z,20.15
2022-08-22T00:30:34.692Z,20.13
2022-08-22T00:33:17.197Z,20.05
2022-08-22T00:36:00.396Z,20.03
2022-08-22T00:38:35.886Z,20.05
2022-08-22T00:41:13.190Z,20.03
2022-08-22T00:44:10.685Z,19.93
2022-08-22T00:47:02.032Z,19.94
2022-08-22T00:49:51.362Z,19.93
2022-08-22T00:52:52.826Z,19.86
2022-08-22T00:55:56.835Z,19.84
2022-08-22T00:59:23.256Z,19.81
2022-08-22T01:02:09.899Z,19.78
2022-08-22T01:04:50.342Z,19.73
2022-08-22T01:07:44.411Z,19.69
2022-08-22T01:10:46.100Z,19.65
2022-08-22T01:13:37.914Z,19.57
2022-08-22T01:16:50.339Z,19.56
2022-08-22T01:20:01.210Z,19.53
2022-08-22T01:23:18.748Z,19.53
2022-08-22T01:26:22.697Z,19.44
2022-08-22T01:29:38.016Z,19.47
2022-08-22T01:33:06.826Z,19.44
2022-08-22T01:36:10.608Z,19.40
2022-08-22T01:39:05.055Z,19.38
2022-08-22T01:42:15.332Z,19.38
2022-08-22T01:45:19.597Z,19.38
2022-08-22T01:47:57.116Z,19.35
2022-08-22T01:50:33.571Z,19.32
2022-08-22T01:53:13.609Z,19.31
2022-08-22T01:55:56.918Z,19.30
2022-08-22T01:58:30.006Z,19.29
2022-08-22T02:01:20.101Z,19.28
2022-08-22T02:04:02.398Z,19.26
2022-08-22T02:06:45.372Z,19.25
2022-08-22T02:09:34.436Z,19.24
2022-08-22T02:12:30.229Z,19.25
2022-08-22T02:15:17.214Z,19.25
2022-08-22T02:18:03.153Z,19.24
2022-08-22T02:20:41.882Z,19.22
2022-08-22T02:23:24.981Z,19.20
2022-08-22T02:26:09.348Z,19.20
2022-08-22T02:28:57.400Z,19.16
2022-08-22T02:31:42.596Z,19.14
2022-08-22T02:34:39.771Z,19.14
2022-08-22T02:37:18.011Z,19.10
2022-08-22T02:39:57.062Z,19.12
2022-08-22T02:42:37.906Z,19.09
2022-08-22T02:45:25.018Z,19.08
2022-08-22T02:48:04.982Z,19.09
2022-08-22T02:50:46.499Z,19.03
2022-08-22T02:53:28.497Z,19.03
2022-08-22T02:56:06.162Z,19.03
2022-08-22T02:58:47.713Z,19.00
2022-08-22T03:01:40.897Z,19.04
2022-08-22T03:04:45.745Z,19.02
2022-08-22T03:07:31.716Z,19.03
2022-08-22T03:10:16.613Z,19.02
2022-08-22T03:13:00.171Z,19.01
2022-08-22T03:15:39.465Z,18.97
2022-08-22T03:18:25.719Z,18.96
2022-08-22T03:21:14.683Z,18.93
2022-08-22T03:23:48.815Z,18.92
2022-08-22T03:26:27.919Z,18.86
2022-08-22T03:29:04.523Z,18.82
2022-08-22T03:31:35.888Z,18.84
2022-08-22T03:34:22.274Z,18.85
2022-08-22T03:37:06.943Z,18.82
2022-08-22T03:39:50.156Z,18.80
2022-08-22T03:42:55.853Z,18.76
2022-08-22T03:46:39.079Z,18.70
2022-08-22T03:49:57.670Z,18.62
2022-08-22T03:53:21.043Z,18.66
2022-08-22T03:56:57.534Z,18.66
2022-08-22T04:00:45.411Z,18.51
2022-08-22T04:04:13.648Z,18.35
2022-08-22T04:07:28.011Z,18.34
2022-08-22T04:10:39.023Z,18.33
2022-08-22T04:13:38.977Z,18.34
2022-08-22T04:17:11.184Z,18.28
2022-08-22T04:20:16.812Z,18.18
2022-08-22T04:23:24.604Z,18.13
2022-08-22T04:25:58.445Z,18.07
2022-08-22T04:28:36.261Z,17.98
2022-08-22T04:31:11.758Z,17.89
2022-08-22T04:33:47.469Z,17.87
2022-08-22T04:36:23.068Z,17.89
2022-08-22T04:39:01.792Z,17.86
2022-08-22T04:41:46.772Z,17.78
2022-08-22T04:44:25.345Z,17.73
2022-08-22T04:47:03.086Z,17.78
2022-08-22T04:49:39.934Z,17.79
2022-08-22T04:52:21.659Z,17.76
2022-08-22T04:55:03.161Z,17.79
2022-08-22T04:57:46.086Z,17.78
2022-08-22T05:00:15.924Z,17.85
2022-08-22T05:02:50.846Z,17.89
2022-08-22T05:05:25.390Z,17.93
2022-08-22T05:07:59.728Z,18.04
2022-08-22T05:10:38.385Z,18.12
2022-08-22T05:13:12.883Z,18.27
2022-08-22T05:15:48.080Z,18.39
2022-08-22T05:18:24.053Z,18.46
2022-08-22T05:21:03.365Z,18.62
2022-08-22T05:23:39.731Z,18.79
2022-08-22T05:26:13.316Z,18.99
2022-08-22T05:28:50.155Z,19.30
2022-08-22T05:31:27.444Z,19.57
2022-08-22T05:34:04.742Z,19.83
2022-08-22T05:36:40.386Z,20.06
2022-08-22T05:39:14.307Z,20.27
2022-08-22T05:41:44.682Z,20.50
2022-08-22T05:44:22.648Z,20.70
2022-08-22T05:47:01.274Z,20.96
2022-08-22T05:49:39.314Z,21.20
2022-08-22T05:52:22.736Z,21.42
2022-08-22T05:54:57.147Z,21.59
2022-08-22T05:57:34.671Z,21.82
2022-08-22T06:00:17.137Z,22.05
2022-08-22T06:03:05.284Z,22.17
2022-08-22T06:05:40.398Z,22.34
2022-08-22T06:08:20.191Z,22.31
2022-08-22T06:10:54.920Z,22.47
2022-08-22T06:13:35.839Z,22.65
2022-08-22T06:16:21.595Z,22.83
2022-08-22T06:18:52.897Z,22.93
2022-08-22T06:21:35.448Z,23.03
2022-08-22T06:24:18.972Z,23.21
2022-08-22T06:26:52.235Z,23.11
2022-08-22T06:29:35.152Z,23.12
2022-08-22T06:32:12.004Z,23.19
2022-08-22T06:34:45.400Z,23.19
2022-08-22T06:37:31.633Z,23.04
2022-08-22T06:40:04.968Z,23.11
2022-08-22T06:42:40.463Z,23.01
2022-08-22T06:45:17.265Z,23.16
2022-08-22T06:47:51.562Z,23.37
2022-08-22T06:50:31.174Z,23.58
2022-08-22T06:53:07.022Z,23.82
2022-08-22T06:55:40.945Z,24.18
2022-08-22T06:58:18.560Z,24.19
2022-08-22T07:01:05.181Z,24.35
2022-08-22T07:03:46.805Z,24.89
2022-08-22T07:06:17.285Z,25.09
2022-08-22T07:08:45.826Z,25.49
2022-08-22T07:11:21.772Z,25.74
2022-08-22T07:14:00.963Z,25.88
2022-08-22T07:16:42.421Z,25.80
2022-08-22T07:19:24.752Z,25.77
2022-08-22T07:21:53.383Z,25.77
2022-08-22T07:24:28.398Z,25.76
2022-08-22T07:27:08.737Z,25.87
2022-08-22T07:29:50.028Z,25.77
2022-08-22T07:32:33.220Z,25.61
2022-08-22T07:35:13.978Z,25.72
2022-08-22T07:38:02.308Z,25.86
2022-08-22T07:40:39.096Z,26.29
2022-08-22T07:43:22.473Z,26.32
2022-08-22T07:45:56.853Z,26.44
2022-08-22T07:49:05.891Z,26.49
2022-08-22T07:51:39.920Z,26.51
2022-08-22T07:54:13.389Z,26.18
2022-08-22T07:56:52.180Z,26.39
2022-08-22T07:59:23.011Z,26.50
2022-08-22T08:01:59.939Z,26.38
2022-08-22T08:04:39.531Z,26.38
2022-08-22T08:07:14.119Z,26.39
2022-08-22T08:09:50.206Z,26.37
2022-08-22T08:12:26.252Z,26.47
2022-08-22T08:14:55.682Z,26.08
2022-08-22T08:17:31.522Z,26.10
2022-08-22T08:20:08.834Z,26.47
2022-08-22T08:22:40.971Z,26.60
2022-08-22T08:25:14.474Z,26.76
2022-08-22T08:28:02.127Z,26.64
2022-08-22T08:30:40.276Z,26.90
2022-08-22T08:33:26.033Z,26.89
2022-08-22T08:36:05.631Z,26.84
2022-08-22T08:38:45.589Z,27.02
2022-08-22T08:41:59.433Z,27.20
2022-08-22T08:45:15.123Z,27.31
2022-08-22T08:48:18.172Z,27.54
2022-08-22T08:51:12.317Z,27.67
2022-08-22T08:54:15.619Z,27.45
2022-08-22T08:57:06.140Z,27.92
2022-08-22T08:59:51.675Z,28.23
2022-08-22T09:03:00.600Z,27.91
2022-08-22T09:06:16.098Z,28.13
2022-08-22T09:08:59.665Z,28.42
2022-08-22T09:12:21.661Z,28.49
2022-08-22T09:15:21.583Z,28.49
2022-08-22T09:18:37.946Z,28.79
2022-08-22T09:22:14.280Z,28.79
2022-08-22T09:25:06.416Z,29.07
2022-08-22T09:27:47.686Z,29.16
2022-08-22T09:33:18.559Z,29.24
2022-08-22T09:36:05.171Z,29.42
2022-08-22T09:38:55.251Z,29.58
2022-08-22T09:41:38.809Z,29.71
2022-08-22T09:44:20.164Z,30.09
2022-08-22T09:47:05.065Z,30.12
2022-08-22T09:49:49.330Z,30.31
2022-08-22T09:52:50.016Z,30.30
2022-08-22T09:55:40.912Z,30.31
2022-08-22T09:58:25.868Z,30.72
2022-08-22T10:01:02.178Z,30.57
2022-08-22T10:04:37.197Z,30.65
2022-08-22T10:07:30.251Z,30.97
2022-08-22T10:10:12.635Z,31.29
2022-08-22T10:12:54.806Z,31.17
2022-08-22T10:15:36.103Z,31.43
2022-08-22T10:18:23.323Z,31.48
2022-08-22T10:21:10.834Z,31.65
2022-08-22T10:23:51.421Z,31.61
2022-08-22T10:26:38.395Z,31.87
2022-08-22T10:29:39.601Z,32.51
2022-08-22T10:32:27.434Z,32.82
2022-08-22T10:35:02.897Z,32.88
2022-08-22T10:37:46.102Z,32.56
2022-08-22T10:40:26.641Z,32.76
2022-08-22T10:43:02.586Z,32.90
2022-08-22T10:45:37.303Z,32.55
2022-08-22T10:48:45.243Z,32.72
2022-08-22T10:51:29.757Z,32.75
2022-08-22T10:54:14.702Z,33.00
2022-08-22T10:56:55.525Z,33.34
2022-08-22T10:59:38.544Z,33.60
2022-08-22T11:02:37.965Z,33.74
2022-08-22T11:05:32.574Z,33.38
2022-08-22T11:08:23.525Z,33.93
2022-08-22T11:11:09.134Z,34.25
2022-08-22T11:13:45.245Z,34.28
2022-08-22T11:16:36.503Z,33.24
2022-08-22T11:19:27.492Z,33.56
2022-08-22T11:22:24.825Z,33.82
2022-08-22T11:25:36.277Z,34.31
2022-08-22T11:28:57.463Z,34.27
2022-08-22T11:31:51.508Z,33.96
2022-08-22T11:34:44.816Z,33.86
2022-08-22T11:37:42.570Z,33.60
2022-08-22T11:40:36.794Z,33.60
2022-08-22T11:43:37.134Z,33.10
2022-08-22T11:46:23.608Z,33.96
2022-08-22T11:49:16.121Z,34.57
2022-08-22T11:52:05.496Z,35.07
2022-08-22T11:55:09.776Z,35.74
2022-08-22T11:57:44.832Z,36.73
2022-08-22T12:00:25.053Z,37.32
2022-08-22T12:03:23.169Z,37.58
2022-08-22T12:05:57.579Z,37.77
2022-08-22T12:09:14.871Z,38.00
2022-08-22T12:12:08.295Z,38.25
2022-08-22T12:14:46.649Z,37.94
2022-08-22T12:17:51.147Z,38.10
2022-08-22T12:21:05.893Z,39.19
2022-08-22T12:24:20.806Z,39.30
2022-08-22T12:27:18.431Z,38.96
2022-08-22T12:30:17.306Z,39.07
2022-08-22T12:33:37.096Z,39.32
2022-08-22T12:36:31.443Z,38.24
2022-08-22T12:39:45.898Z,37.62
2022-08-22T12:43:06.650Z,38.07
2022-08-22T12:46:03.389Z,38.85
2022-08-22T12:48:54.863Z,39.53
2022-08-22T12:51:36.197Z,39.24
2022-08-22T12:54:46.823Z,38.64
2022-08-22T12:57:35.402Z,37.94
2022-08-22T13:00:27.133Z,37.25
2022-08-22T13:03:04.590Z,36.54
2022-08-22T13:05:40.897Z,36.02
2022-08-22T13:08:22.825Z,35.49
2022-08-22T13:11:08.108Z,35.45
2022-08-22T13:13:56.210Z,34.90
2022-08-22T13:16:38.800Z,34.59
2022-08-22T13:19:17.227Z,34.26
2022-08-22T13:21:55.029Z,34.01
2022-08-22T13:24:39.650Z,34.11
2022-08-22T13:27:20.254Z,34.19
2022-08-22T13:29:57.097Z,34.73
2022-08-22T13:32:34.780Z,35.01
2022-08-22T13:35:07.707Z,34.90
2022-08-22T13:37:46.488Z,34.98
2022-08-22T13:40:26.362Z,34.67
2022-08-22T13:43:07.464Z,34.14
2022-08-22T13:45:38.933Z,33.65
2022-08-22T13:48:12.976Z,34.07
2022-08-22T13:51:01.882Z,33.67
2022-08-22T13:53:43.256Z,33.33
2022-08-22T13:56:37.722Z,33.56
2022-08-22T13:59:50.063Z,34.00
2022-08-22T14:02:43.480Z,33.91
2022-08-22T14:05:21.515Z,33.77
2022-08-22T14:08:12.945Z,33.90
2022-08-22T14:10:52.248Z,33.77
2022-08-22T14:13:41.295Z,34.01
2022-08-22T14:16:24.598Z,34.07
2022-08-22T14:18:57.776Z,34.19
2022-08-22T14:21:40.778Z,34.23
2022-08-22T14:24:20.119Z,34.45
2022-08-22T14:27:00.158Z,34.58
2022-08-22T14:29:45.773Z,34.77
2022-08-22T14:32:48.003Z,34.99
2022-08-22T14:35:31.398Z,35.09
2022-08-22T14:38:30.026Z,34.75
2022-08-22T14:41:05.343Z,34.59
2022-08-22T14:43:50.507Z,34.43
2022-08-22T14:46:33.383Z,34.15
2022-08-22T14:49:30.591Z,34.02
2022-08-22T14:52:06.969Z,34.06
2022-08-22T14:54:38.777Z,34.15
2022-08-22T14:57:11.914Z,33.70
2022-08-22T14:59:52.361Z,33.48
2022-08-22T15:02:28.995Z,34.00
2022-08-22T15:05:12.571Z,34.18
2022-08-22T15:07:41.875Z,34.05
2022-08-22T15:10:22.385Z,33.82
2022-08-22T15:12:55.222Z,33.50
2022-08-22T15:15:49.743Z,32.97
2022-08-22T15:18:35.304Z,32.90
2022-08-22T15:21:10.129Z,32.98
2022-08-22T15:23:46.747Z,32.86
2022-08-22T15:26:28.108Z,32.80
2022-08-22T15:29:07.679Z,32.67
2022-08-22T15:31:41.592Z,32.89
2022-08-22T15:34:23.415Z,32.88
2022-08-22T15:37:32.748Z,32.85
2022-08-22T15:40:11.829Z,32.78
2022-08-22T15:42:45.523Z,32.59
2022-08-22T15:45:33.774Z,32.46
2022-08-22T15:48:23.631Z,32.38
2022-08-22T15:50:59.606Z,32.35
2022-08-22T15:53:52.328Z,32.17
2022-08-22T15:56:27.248Z,32.12
2022-08-22T15:59:24.151Z,32.31
2022-08-22T16:01:57.099Z,32.37
2022-08-22T16:04:43.313Z,32.47
2022-08-22T16:07:40.520Z,32.37
2022-08-22T16:10:30.833Z,32.15
2022-08-22T16:13:32.189Z,32.24
2022-08-22T16:16:07.091Z,32.05
2022-08-22T16:19:17.185Z,32.08
2022-08-22T16:22:14.831Z,32.01
2022-08-22T16:25:01.150Z,31.80
2022-08-22T16:27:31.379Z,31.82
2022-08-22T16:30:15.284Z,31.94
2022-08-22T16:32:56.266Z,32.19
2022-08-22T16:36:22.665Z,32.33
2022-08-22T16:38:55.536Z,32.13
2022-08-22T16:41:36.363Z,31.85
2022-08-22T16:44:42.545Z,31.65
2022-08-22T16:47:18.521Z,31.54
2022-08-22T16:50:02.496Z,31.59
2022-08-22T16:53:01.419Z,31.61
2022-08-22T16:56:03.523Z,31.59
2022-08-22T16:59:23.532Z,31.20
2022-08-22T17:02:33.016Z,30.78
2022-08-22T17:05:37.395Z,30.92
2022-08-22T17:08:41.643Z,31.28
2022-08-22T17:11:30.578Z,31.27
2022-08-22T17:14:21.288Z,31.28
2022-08-22T17:17:11.891Z,31.22
2022-08-22T17:20:11.920Z,31.34
2022-08-22T17:22:54.357Z,31.18
2022-08-22T17:25:35.981Z,31.06
2022-08-22T17:28:22.269Z,31.05
2022-08-22T17:31:02.005Z,30.97
2022-08-22T17:34:02.408Z,30.92
2022-08-22T17:36:51.339Z,30.78
2022-08-22T17:39:42.176Z,30.66
2022-08-22T17:42:45.466Z,30.52
2022-08-22T17:45:28.610Z,30.31
2022-08-22T17:48:07.724Z,30.21
2022-08-22T17:50:45.478Z,30.11
2022-08-22T17:53:31.839Z,29.88
2022-08-22T17:56:13.237Z,29.79
2022-08-22T17:58:48.655Z,29.60
2022-08-22T18:01:49.829Z,29.58
2022-08-22T18:04:33.533Z,29.30
2022-08-22T18:07:27.774Z,29.15
2022-08-22T18:10:06.339Z,29.01
2022-08-22T18:12:44.346Z,28.91
2022-08-22T18:15:25.703Z,28.82
2022-08-22T18:18:03.668Z,28.66
2022-08-22T18:20:49.624Z,28.58
2022-08-22T18:23:36.307Z,28.37
2022-08-22T18:26:30.675Z,28.26
2022-08-22T18:29:10.890Z,28.03
2022-08-22T18:31:53.073Z,27.91
2022-08-22T18:34:33.196Z,27.84
2022-08-22T18:37:39.756Z,27.72
2022-08-22T18:40:24.872Z,27.60
2022-08-22T18:43:01.601Z,27.49
2022-08-22T18:46:03.925Z,27.24
2022-08-22T18:48:59.447Z,27.06
2022-08-22T18:51:38.390Z,26.84
2022-08-22T18:54:47.786Z,26.78
2022-08-22T18:57:45.278Z,26.53
2022-08-22T19:00:19.051Z,26.41
2022-08-22T19:03:20.718Z,26.30
2022-08-22T19:06:40.673Z,26.23
2022-08-22T19:09:47.596Z,26.23
2022-08-22T19:12:45.236Z,26.20
2022-08-22T19:15:31.181Z,26.12
2022-08-22T19:18:40.418Z,26.06
2022-08-22T19:21:44.625Z,26.00
2022-08-22T19:24:37.543Z,25.96
2022-08-22T19:27:30.969Z,25.90
2022-08-22T19:30:09.119Z,25.84
2022-08-22T19:33:06.603Z,25.87
2022-08-22T19:36:08.594Z,25.82
2022-08-22T19:39:09.019Z,25.80
2022-08-22T19:41:44.034Z,25.76
2022-08-22T19:44:34.382Z,25.67
2022-08-22T19:47:30.181Z,25.65
2022-08-22T19:50:06.079Z,25.59
2022-08-22T19:53:00.643Z,25.55
2022-08-22T19:55:51.405Z,25.49
2022-08-22T19:58:33.248Z,25.38
2022-08-22T20:01:25.768Z,25.26
2022-08-22T20:04:04.721Z,25.08
2022-08-22T20:06:45.007Z,25.03
2022-08-22T20:09:30.457Z,25.04
2022-08-22T20:12:15.768Z,24.98
2022-08-22T20:14:47.352Z,24.98
2022-08-22T20:17:43.717Z,24.93
2022-08-22T20:20:38.101Z,24.83
2022-08-22T20:23:15.764Z,24.70
2022-08-22T20:25:52.005Z,24.64
2022-08-22T20:28:47.014Z,24.60
2022-08-22T20:31:23.477Z,24.59
2022-08-22T20:34:00.459Z,24.58
2022-08-22T20:36:29.513Z,24.54
2022-08-22T20:39:05.514Z,24.53
2022-08-22T20:41:38.888Z,24.53
2022-08-22T20:44:15.756Z,24.55
2022-08-22T20:46:55.246Z,24.54
2022-08-22T20:49:30.126Z,24.53
2022-08-22T20:52:02.327Z,24.55
2022-08-22T20:54:34.247Z,24.53
2022-08-22T20:57:13.928Z,24.53
2022-08-22T20:59:51.167Z,24.59
2022-08-22T21:02:24.208Z,24.63
2022-08-22T21:05:01.956Z,24.65
2022-08-22T21:07:32.898Z,24.69
2022-08-22T21:10:25.316Z,24.74
2022-08-22T21:13:07.227Z,24.75
2022-08-22T21:15:39.729Z,24.74
2022-08-22T21:18:08.037Z,24.79
2022-08-22T21:20:39.285Z,24.77
2022-08-22T21:23:15.142Z,24.73
2022-08-22T21:25:57.303Z,24.71
2022-08-22T21:28:29.262Z,24.67
2022-08-22T21:30:58.719Z,24.62
2022-08-22T21:33:26.917Z,24.59
2022-08-22T21:35:59.342Z,24.59
2022-08-22T21:38:28.200Z,24.59
2022-08-22T21:41:04.647Z,24.57
2022-08-22T21:43:36.885Z,24.52
2022-08-22T21:46:06.662Z,24.46
2022-08-22T21:48:43.632Z,24.50
2022-08-22T21:51:28.628Z,24.54
2022-08-22T21:54:39.542Z,24.56
2022-08-22T21:57:33.396Z,24.47
2022-08-22T22:00:02.027Z,24.35
2022-08-22T22:02:41.972Z,24.36
2022-08-22T22:05:15.838Z,24.24
2022-08-22T22:07:47.856Z,24.23
2022-08-22T22:10:21.995Z,24.22
2022-08-22T22:12:52.051Z,24.18
2022-08-22T22:15:23.592Z,24.19
2022-08-22T22:17:52.497Z,24.24
2022-08-22T22:20:23.327Z,24.25
2022-08-22T22:22:52.551Z,24.19
2022-08-22T22:25:39.652Z,24.17
2022-08-22T22:28:14.422Z,24.15
2022-08-22T22:30:44.354Z,24.15
2022-08-22T22:33:12.740Z,24.13
2022-08-22T22:35:41.201Z,24.13
2022-08-22T22:38:11.744Z,24.10
2022-08-22T22:40:41.168Z,24.10
2022-08-22T22:43:10.337Z,24.09
2022-08-22T22:45:38.729Z,24.06
2022-08-22T22:48:08.000Z,23.98
2022-08-22T22:50:42.895Z,23.88
2022-08-22T22:53:12.469Z,23.87
2022-08-22T22:56:00.127Z,23.81
2022-08-22T22:58:28.821Z,23.83
2022-08-22T23:00:58.186Z,23.78
2022-08-22T23:03:26.841Z,23.80
2022-08-22T23:05:55.908Z,23.76
2022-08-22T23:08:25.093Z,23.76
2022-08-22T23:10:53.162Z,23.73
2022-08-22T23:13:22.480Z,23.75
2022-08-22T23:15:50.633Z,23.75
2022-08-22T23:18:18.490Z,23.76
2022-08-22T23:20:49.147Z,23.78
2022-08-22T23:23:16.957Z,23.78
2022-08-22T23:25:46.306Z,23.76
2022-08-22T23:28:14.075Z,23.69
2022-08-22T23:30:41.939Z,23.68
2022-08-22T23:33:09.766Z,23.63
2022-08-22T23:35:37.582Z,23.59
2022-08-22T23:38:05.414Z,23.54
2022-08-22T23:40:33.527Z,23.47
2022-08-22T23:43:05.306Z,23.40
2022-08-22T23:45:33.076Z,23.32
2022-08-22T23:48:01.094Z,23.21
2022-08-22T23:50:29.019Z,23.19
2022-08-22T23:52:56.881Z,23.14
2022-08-22T23:55:24.678Z,23.08
2022-08-22T23:57:52.667Z,23.04
